ロンドン/ヒースロー の空港の天気 - METARとTAF

ロンドン・ヒースロー空港 ( EGLL / LHR ) - イギリス ロンドン
飛行場実況気象(Metar)
観測時間05/27 19:50 BST (05/27 18:50 UTC)
風向・風速南西 6m/s
視程10km以上
天気現象
なし
気温18℃
湿度68%
気圧1016hPa
METAREGLL 271850Z AUTO 22011KT 9999 NCD 18/12 Q1016
過去の天気等 Google飛行場航空写真 Wunderground天気予報

過去48時間のMETAR

飛行場予報(TAF)
発表時間: 5/27 17:54 BST (5/27 16:54 UTC)
予報対象時間: 27日19時 BST ~ 29日1時 BST
風向・風速南南西 6m/s
視程10km以上
少しの雲 雲底高度 910m
28日1時 BST ~ 28日4時 BST に徐々に
風向・風速不定 2m/s
28日3時 BST ~ 28日7時 BST に 確率 30% で一時的に
視程7,000m
全天の8割程度の雲 雲底高度 180m
28日15時 BST ~ 28日21時 BST に 確率 30% で一時的に
視程6,000m
天気現象しゅう雨 雨
28日19時 BST ~ 28日22時 BST に徐々に
風向・風速東 5m/s
28日21時 BST ~ 29日1時 BST に一時的に
視程6,000m
天気現象しゅう雨 雨
28日21時 BST ~ 29日1時 BST に 確率 30% で一時的に
視程3,500m
天気現象雷雨 強いしゅう雨
TAF EGLL 271654Z 2718/2824 21012KT 9999 FEW030
BECMG 2800/2803 VRB04KT
PROB30 TEMPO 2802/2806 7000 BKN006
PROB30 TEMPO 2814/2820 6000 SHRA RA
BECMG 2818/2821 10010KT
TEMPO 2820/2824 6000 SHRA RA
PROB30 TEMPO 2820/2824 3500 TSRA +SHRA